Time;durP1;ratioP1;P1;durP2;ratioP2;P2;SDS_P1;SDS_P2;PMS_P1;PMS_P2;Temp;Humidity;BMP_temperature;BMP_pressure;BME280_temperature;BME280_humidity;BME280_pressure;Samples;Min_cycle;Max_cycle;Signal;HPM_P1;HPM_P2
2021/06/12 00:00:07;;;;;;;7.00;6.28;;;;;;;16.99;87.43;100134.08;1752817;80;21003;-39
2021/06/12 00:02:34;;;;;;;7.12;6.33;;;;;;;16.97;87.61;100137.41;1748400;80;20963;-40
2021/06/12 00:05:00;;;;;;;7.37;6.60;;;;;;;16.94;87.93;100132.30;1752694;80;21923;-40
2021/06/12 00:07:27;;;;;;;7.05;6.40;;;;;;;16.93;88.19;100137.31;1753043;80;21530;-40
2021/06/12 00:09:53;;;;;;;8.68;6.95;;;;;;;16.91;88.21;100132.55;1752509;80;20998;-40
2021/06/12 00:12:20;;;;;;;7.65;6.95;;;;;;;16.88;88.23;100129.64;1749302;80;21007;-42
2021/06/12 00:14:48;;;;;;;7.62;6.83;;;;;;;16.87;88.36;100127.45;1752630;80;21015;-40
2021/06/12 00:17:14;;;;;;;9.10;6.25;;;;;;;16.86;88.29;100125.77;1750417;81;20935;-40
2021/06/12 00:19:42;;;;;;;8.03;7.22;;;;;;;16.84;88.18;100121.01;1752334;80;21008;-41
2021/06/12 00:22:08;;;;;;;8.58;6.17;;;;;;;16.83;88.22;100122.48;1752689;80;20967;-41
2021/06/12 00:24:34;;;;;;;7.80;7.00;;;;;;;16.81;88.51;100121.80;1750160;80;21389;-40
2021/06/12 00:27:01;;;;;;;7.37;6.53;;;;;;;16.80;88.56;100120.07;1752827;80;20951;-39
2021/06/12 00:29:28;;;;;;;7.65;6.85;;;;;;;16.80;88.44;100120.07;1753697;80;20975;-41
2021/06/12 00:31:54;;;;;;;9.40;5.92;;;;;;;16.79;88.30;100117.03;1752328;81;21007;-41
2021/06/12 00:34:21;;;;;;;7.92;6.20;;;;;;;16.78;88.37;100119.35;1749688;80;20984;-41
2021/06/12 00:36:47;;;;;;;6.65;5.45;;;;;;;16.77;88.47;100122.52;1750714;80;21474;-41
2021/06/12 00:39:14;;;;;;;7.40;6.65;;;;;;;16.73;88.13;100125.61;1748845;81;20927;-42
2021/06/12 00:41:40;;;;;;;7.75;7.05;;;;;;;16.67;87.85;100124.33;1749643;80;20916;-40
2021/06/12 00:44:08;;;;;;;8.00;6.90;;;;;;;16.65;87.78;100128.49;1746657;80;21043;-40
2021/06/12 00:46:34;;;;;;;8.20;5.78;;;;;;;16.62;87.92;100125.23;1748824;81;21010;-40
2021/06/12 00:49:01;;;;;;;5.97;5.37;;;;;;;16.59;87.93;100127.70;1751279;80;20972;-40
2021/06/12 00:51:28;;;;;;;7.53;6.75;;;;;;;16.57;87.79;100124.80;1752028;81;20924;-40
2021/06/12 00:53:54;;;;;;;7.75;6.10;;;;;;;16.55;87.94;100124.08;1746054;80;21037;-41
2021/06/12 00:56:21;;;;;;;6.08;5.47;;;;;;;16.51;88.12;100126.20;1745706;80;21467;-38
2021/06/12 00:58:50;;;;;;;7.60;6.33;;;;;;;16.49;88.10;100125.98;1748977;80;21007;-38
2021/06/12 01:01:20;;;;;;;6.72;6.03;;;;;;;16.47;88.11;100123.91;1748182;81;21521;-38
2021/06/12 01:03:48;;;;;;;7.92;6.22;;;;;;;16.44;88.11;100126.38;1744755;80;20963;-38
2021/06/12 01:06:17;;;;;;;6.40;5.80;;;;;;;16.42;87.96;100129.70;1750467;80;21333;-38
2021/06/12 01:08:44;;;;;;;7.55;6.65;;;;;;;16.39;88.01;100124.09;1745260;80;20956;-39
2021/06/12 01:11:11;;;;;;;6.85;6.15;;;;;;;16.38;88.13;100136.36;1749098;80;20920;-38
2021/06/12 01:14:16;;;;;;;6.15;5.55;;;;;;;16.35;87.94;100129.88;1747381;80;21036;-38
2021/06/12 01:17:13;;;;;;;7.65;5.80;;;;;;;16.33;87.99;100130.03;1747346;80;21458;-40
2021/06/12 01:20:19;;;;;;;6.95;5.15;;;;;;;16.31;87.79;100132.00;1700944;83;21000;-39
2021/06/12 01:23:00;;;;;;;6.65;5.95;;;;;;;16.26;87.67;100134.74;1711937;83;21486;-40
2021/06/12 01:25:59;;;;;;;7.15;5.92;;;;;;;16.20;87.67;100133.41;1700257;83;20995;-41
2021/06/12 01:29:05;;;;;;;6.33;5.72;;;;;;;16.18;87.79;100135.41;1688178;83;21004;-40
2021/06/12 01:31:31;;;;;;;9.68;5.83;;;;;;;16.15;88.13;100133.84;1615185;87;21046;-43
2021/06/12 01:33:58;;;;;;;7.08;5.90;;;;;;;16.13;88.62;100137.16;1589414;87;21105;-43
2021/06/12 01:36:24;;;;;;;6.65;5.50;;;;;;;16.12;89.05;100130.05;1582706;89;21833;-43
2021/06/12 01:38:53;;;;;;;6.83;5.95;;;;;;;16.10;89.15;100132.05;1576100;89;20964;-43
2021/06/12 01:41:20;;;;;;;7.15;6.12;;;;;;;16.08;89.09;100127.30;1571943;89;21067;-43
2021/06/12 01:43:49;;;;;;;7.40;6.00;;;;;;;16.06;89.14;100129.25;1577272;88;21062;-41
2021/06/12 01:46:15;;;;;;;7.85;6.28;;;;;;;16.05;89.22;100132.06;1575237;89;21022;-42
2021/06/12 01:48:44;;;;;;;5.47;4.95;;;;;;;16.02;89.37;100130.50;1547840;91;21050;-42
2021/06/12 01:51:11;;;;;;;7.20;6.00;;;;;;;16.01;89.51;100135.03;1580047;89;21042;-43
2021/06/12 01:53:39;;;;;;;6.62;5.92;;;;;;;16.01;89.64;100131.49;1579947;89;21779;-42
2021/06/12 01:56:07;;;;;;;7.20;5.85;;;;;;;16.00;90.01;100132.46;1615120;86;21022;-41
2021/06/12 01:58:34;;;;;;;6.62;5.70;;;;;;;15.98;90.18;100136.64;1625699;86;21018;-42
2021/06/12 02:01:01;;;;;;;7.28;5.37;;;;;;;15.98;90.14;100133.11;1603837;86;21043;-43
2021/06/12 02:03:27;;;;;;;5.67;5.10;;;;;;;15.97;90.26;100130.04;1628944;86;21018;-41
2021/06/12 02:05:55;;;;;;;6.60;5.80;;;;;;;15.95;90.43;100136.04;1625571;86;21065;-40
2021/06/12 02:08:22;;;;;;;6.15;5.55;;;;;;;15.93;90.48;100135.34;1640070;83;20952;-39
2021/06/12 02:10:49;;;;;;;7.30;5.37;;;;;;;15.92;90.77;100137.16;1718257;82;21027;-38
2021/06/12 02:13:17;;;;;;;7.22;5.53;;;;;;;15.90;91.04;100131.55;1683251;84;20990;-40
2021/06/12 02:15:45;;;;;;;6.42;4.65;;;;;;;15.89;91.22;100136.09;1718063;83;20991;-47
2021/06/12 02:18:12;;;;;;;5.83;4.80;;;;;;;15.89;91.16;100130.70;1688356;83;20949;-40
2021/06/12 02:20:39;;;;;;;7.35;4.97;;;;;;;15.89;91.32;100137.92;1719573;82;21047;-40
2021/06/12 02:23:07;;;;;;;5.87;4.97;;;;;;;15.88;91.59;100142.95;1717321;82;21518;-41
2021/06/12 02:25:34;;;;;;;5.60;5.10;;;;;;;15.87;91.69;100147.95;1718969;83;20983;-40
2021/06/12 02:28:10;;;;;;;8.38;5.42;;;;;;;15.87;91.72;100145.27;1651918;84;20984;-41
2021/06/12 02:30:45;;;;;;;6.17;5.05;;;;;;;15.87;91.85;100146.61;1718157;82;20960;-41
2021/06/12 02:33:14;;;;;;;5.90;5.37;;;;;;;15.88;92.10;100152.37;1721209;81;21023;-43
2021/06/12 02:35:41;;;;;;;6.10;5.50;;;;;;;15.87;92.32;100152.83;1738438;81;21012;-44
2021/06/12 02:38:09;;;;;;;5.92;5.33;;;;;;;15.87;92.49;100152.83;1736139;81;20932;-41
2021/06/12 02:40:36;;;;;;;7.08;5.87;;;;;;;15.88;92.70;100159.09;1733398;81;21023;-41
2021/06/12 02:43:03;;;;;;;8.88;5.45;;;;;;;15.89;93.01;100165.66;1736712;81;21038;-40
2021/06/12 02:45:29;;;;;;;7.10;5.87;;;;;;;15.91;93.53;100165.54;1736910;81;20977;-40
2021/06/12 02:48:01;;;;;;;14.15;12.65;;;;;;;15.92;93.46;100168.08;1736463;81;20956;-40
2021/06/12 02:50:32;;;;;;;43.73;38.00;;;;;;;15.94;93.51;100163.42;1742451;81;20972;-43
2021/06/12 02:53:04;;;;;;;;;;;;;;;15.95;93.60;100166.96;1734147;81;20928;-42
2021/06/12 02:55:33;;;;;;;14.38;12.60;;;;;;;15.96;93.66;100168.19;1690922;83;20149;-40
2021/06/12 02:57:59;;;;;;;10.43;9.38;;;;;;;15.98;93.89;100168.06;1737151;81;20996;-42
2021/06/12 03:00:26;;;;;;;8.85;6.83;;;;;;;16.00;94.16;100172.33;1737498;81;21508;-40
2021/06/12 03:02:53;;;;;;;7.70;6.72;;;;;;;16.01;94.41;100169.98;1734200;81;21005;-41
2021/06/12 03:05:23;;;;;;;7.78;6.75;;;;;;;16.03;94.70;100164.48;1740792;81;21013;-41
2021/06/12 03:07:56;;;;;;;6.42;5.83;;;;;;;16.06;95.08;100168.75;1736808;81;21416;-42
2021/06/12 03:10:23;;;;;;;6.62;6.03;;;;;;;16.07;95.53;100165.91;1737513;81;20959;-39
2021/06/12 03:12:50;;;;;;;7.15;6.20;;;;;;;16.10;96.04;100171.05;1734057;81;21471;-40
2021/06/12 03:15:16;;;;;;;6.83;6.05;;;;;;;16.12;96.63;100176.27;1711353;82;21011;-40
2021/06/12 03:17:45;;;;;;;7.47;6.17;;;;;;;16.14;97.24;100171.12;1738178;81;20948;-42
2021/06/12 03:20:15;;;;;;;6.87;6.17;;;;;;;16.18;97.90;100177.95;1739581;81;20968;-40
2021/06/12 03:22:45;;;;;;;10.10;6.70;;;;;;;16.21;98.50;100174.14;1733369;81;20932;-43
2021/06/12 03:25:13;;;;;;;11.30;7.03;;;;;;;16.25;99.05;100172.87;1737569;81;21016;-43
2021/06/12 03:27:41;;;;;;;11.53;7.67;;;;;;;16.30;99.35;100180.55;1736248;82;20945;-39
2021/06/12 03:30:10;;;;;;;12.53;7.33;;;;;;;16.36;99.64;100184.06;1734953;81;21000;-39
2021/06/12 03:32:36;;;;;;;7.78;7.05;;;;;;;16.41;100.00;100184.02;1735747;81;20944;-37
2021/06/12 03:35:04;;;;;;;9.25;8.28;;;;;;;16.46;100.00;100183.62;1720694;81;21419;-41
2021/06/12 03:37:35;;;;;;;10.98;8.08;;;;;;;16.51;100.00;100179.18;1723401;81;20972;-39
2021/06/12 03:40:02;;;;;;;8.63;7.73;;;;;;;16.58;100.00;100177.62;1724072;81;21021;-40
2021/06/12 03:42:29;;;;;;;9.85;8.83;;;;;;;16.62;100.00;100174.53;1722840;81;21171;-42
2021/06/12 03:44:58;;;;;;;9.65;8.48;;;;;;;16.70;99.72;100178.39;1685478;83;21003;-40
2021/06/12 03:47:25;;;;;;;15.65;10.80;;;;;;;16.75;99.25;100174.79;1685498;83;20936;-41
2021/06/12 03:49:52;;;;;;;14.80;11.53;;;;;;;16.82;99.06;100177.33;1720930;81;20964;-41
2021/06/12 03:52:23;;;;;;;12.85;9.15;;;;;;;16.88;99.17;100182.16;1704841;81;20952;-42
2021/06/12 03:54:50;;;;;;;13.15;7.97;;;;;;;16.94;99.20;100182.97;1687865;83;21022;-41
2021/06/12 03:57:18;;;;;;;11.80;8.88;;;;;;;17.00;99.26;100186.94;1703588;81;20948;-43
2021/06/12 03:59:45;;;;;;;9.40;8.13;;;;;;;17.04;99.55;100193.27;1722455;81;21027;-43
2021/06/12 04:02:12;;;;;;;9.43;7.80;;;;;;;17.09;99.83;100189.66;1721475;81;20983;-40
2021/06/12 04:04:38;;;;;;;8.68;7.87;;;;;;;17.15;100.00;100192.79;1720112;81;20990;-42
2021/06/12 04:07:05;;;;;;;9.03;8.13;;;;;;;17.18;100.00;100189.31;1719978;82;21028;-38
2021/06/12 04:09:32;;;;;;;10.43;9.38;;;;;;;17.24;100.00;100190.12;1720909;81;20960;-40
2021/06/12 04:11:59;;;;;;;10.50;9.25;;;;;;;17.27;100.00;100193.88;1723557;81;21539;-41
2021/06/12 04:14:26;;;;;;;10.43;9.25;;;;;;;17.33;100.00;100195.65;1705375;83;20960;-44
2021/06/12 04:16:53;;;;;;;8.35;7.40;;;;;;;17.37;100.00;100198.44;1688570;83;21529;-40
2021/06/12 04:19:19;;;;;;;9.10;7.95;;;;;;;17.43;100.00;100197.86;1673774;84;20968;-40
2021/06/12 04:21:48;;;;;;;9.13;8.28;;;;;;;17.51;100.00;100203.39;1723550;81;20936;-42
2021/06/12 04:24:16;;;;;;;9.25;8.30;;;;;;;17.59;100.00;100199.98;1692400;83;21043;-42
2021/06/12 04:26:44;;;;;;;15.60;9.75;;;;;;;17.68;100.00;100205.89;1673249;84;20973;-41
2021/06/12 04:29:11;;;;;;;22.48;20.05;;;;;;;17.76;100.00;100215.95;1723496;81;21446;-44
2021/06/12 04:31:38;;;;;;;13.48;12.07;;;;;;;17.82;100.00;100217.63;1722421;81;21420;-44
2021/06/12 04:34:04;;;;;;;10.90;8.80;;;;;;;17.89;100.00;100217.89;1734357;81;20974;-43
2021/06/12 04:36:31;;;;;;;8.78;7.87;;;;;;;17.97;100.00;100218.52;1752080;80;20978;-43
2021/06/12 04:38:58;;;;;;;8.55;7.75;;;;;;;18.01;100.00;100215.91;1753821;80;20959;-44
2021/06/12 04:41:25;;;;;;;9.85;8.48;;;;;;;18.07;100.00;100212.14;1749405;80;20976;-43
2021/06/12 04:43:51;;;;;;;9.70;8.68;;;;;;;18.14;100.00;100211.05;1753122;80;21081;-41
2021/06/12 04:46:18;;;;;;;10.55;8.78;;;;;;;18.18;100.00;100212.97;1751242;80;20971;-41
2021/06/12 04:48:45;;;;;;;10.13;8.58;;;;;;;18.22;100.00;100207.15;1750798;81;21016;-40
2021/06/12 04:51:11;;;;;;;8.05;7.25;;;;;;;18.28;100.00;100201.66;1749060;80;20974;-44
2021/06/12 04:53:38;;;;;;;9.33;7.25;;;;;;;18.34;100.00;100208.69;1748129;81;21120;-38
2021/06/12 04:56:06;;;;;;;8.13;6.97;;;;;;;18.38;100.00;100210.58;1751855;81;21784;-42
2021/06/12 04:58:32;;;;;;;8.55;7.58;;;;;;;18.43;100.00;100213.69;1751947;80;21474;-41
2021/06/12 05:00:59;;;;;;;10.13;6.72;;;;;;;18.48;100.00;100210.55;1746469;80;20972;-42
2021/06/12 05:03:25;;;;;;;8.50;7.62;;;;;;;18.52;99.45;100207.89;1751214;80;20988;-42
2021/06/12 05:05:52;;;;;;;8.10;5.20;;;;;;;18.56;99.12;100206.10;1751575;80;20957;-42
2021/06/12 05:08:19;;;;;;;8.65;4.90;;;;;;;18.63;97.40;100202.83;1751038;80;20995;-42
2021/06/12 05:10:47;;;;;;;5.47;4.97;;;;;;;18.67;95.82;100198.34;1751122;80;21534;-42
2021/06/12 05:13:14;;;;;;;6.17;5.12;;;;;;;18.73;94.33;100195.53;1752378;80;20949;-38
2021/06/12 05:15:42;;;;;;;5.67;5.03;;;;;;;18.79;94.39;100197.15;1751879;80;20998;-38
2021/06/12 05:18:11;;;;;;;8.53;7.62;;;;;;;18.91;93.71;100190.22;1753274;80;20971;-39
2021/06/12 05:20:37;;;;;;;7.90;4.40;;;;;;;19.00;93.04;100189.32;1753594;80;21000;-39
2021/06/12 05:23:04;;;;;;;6.22;3.60;;;;;;;19.10;90.99;100191.94;1749639;81;21025;-41
2021/06/12 05:25:32;;;;;;;4.47;4.08;;;;;;;19.17;89.71;100183.58;1750382;81;20997;-42
2021/06/12 05:28:04;;;;;;;4.58;3.62;;;;;;;19.24;88.48;100174.70;1750188;80;20989;-42
2021/06/12 05:30:32;;;;;;;4.03;3.62;;;;;;;19.32;87.09;100174.45;1749669;80;20939;-39
2021/06/12 05:33:00;;;;;;;6.70;4.55;;;;;;;19.40;87.16;100171.81;1750641;80;21546;-40
2021/06/12 05:35:29;;;;;;;4.00;3.45;;;;;;;19.46;86.99;100175.27;1746957;80;21311;-43
2021/06/12 05:37:57;;;;;;;5.17;3.25;;;;;;;19.53;85.96;100181.77;1747228;81;20987;-42
2021/06/12 05:40:24;;;;;;;5.87;3.50;;;;;;;19.58;83.91;100177.22;1746176;80;21303;-42
2021/06/12 05:42:52;;;;;;;4.58;3.60;;;;;;;19.63;82.43;100182.53;1747223;80;21750;-40
2021/06/12 05:45:18;;;;;;;4.58;3.65;;;;;;;19.69;82.59;100182.95;1749932;80;20936;-41
2021/06/12 05:47:45;;;;;;;4.22;3.50;;;;;;;19.73;82.11;100175.73;1745488;80;21054;-40
2021/06/12 05:50:11;;;;;;;4.35;3.60;;;;;;;19.79;81.64;100174.24;1750113;81;20936;-40
2021/06/12 05:52:38;;;;;;;5.37;4.87;;;;;;;19.86;81.68;100178.87;1750349;81;21526;-40
2021/06/12 05:55:06;;;;;;;4.30;3.67;;;;;;;19.90;80.06;100175.33;1750683;81;20936;-40
2021/06/12 05:57:32;;;;;;;4.33;3.92;;;;;;;19.94;79.96;100172.67;1748407;80;21486;-41
2021/06/12 05:59:59;;;;;;;4.00;3.60;;;;;;;20.00;79.69;100168.47;1752762;80;21501;-41
2021/06/12 06:02:36;;;;;;;8.68;6.45;;;;;;;20.04;78.99;100165.81;1749141;80;20932;-39
2021/06/12 06:08:41;;;;;;;4.92;3.42;;;;;;;20.17;78.32;100163.52;1561356;90;21107;-43
2021/06/12 06:11:08;;;;;;;5.35;3.22;;;;;;;20.25;75.39;100165.43;1563827;90;21032;-43
2021/06/12 06:13:39;;;;;;;5.55;3.92;;;;;;;20.26;74.94;100162.58;1557141;90;21122;-44
2021/06/12 06:16:07;;;;;;;5.95;4.35;;;;;;;20.31;75.02;100162.10;1553677;90;21029;-43
2021/06/12 06:18:38;;;;;;;6.25;3.58;;;;;;;20.34;75.12;100165.83;1556943;90;21022;-43
2021/06/12 06:21:05;;;;;;;7.17;4.67;;;;;;;20.38;76.11;100163.64;1555768;90;21054;-41
2021/06/12 06:23:32;;;;;;;4.00;3.60;;;;;;;20.43;76.80;100172.97;1553258;90;21021;-44
2021/06/12 06:26:00;;;;;;;10.88;4.53;;;;;;;20.48;75.93;100167.92;1564306;90;21009;-42
2021/06/12 06:28:27;;;;;;;4.60;4.10;;;;;;;20.51;74.59;100164.92;1566003;90;21554;-40
2021/06/12 06:30:54;;;;;;;3.98;3.62;;;;;;;20.55;73.02;100161.91;1565349;90;20988;-41
2021/06/12 06:33:22;;;;;;;3.98;3.52;;;;;;;20.59;73.55;100169.55;1564069;90;21047;-40
2021/06/12 06:35:52;;;;;;;6.90;3.35;;;;;;;20.63;73.34;100161.94;1568636;90;20962;-41
2021/06/12 06:38:19;;;;;;;5.78;4.20;;;;;;;20.67;73.01;100161.97;1537702;92;21047;-40
2021/06/12 06:40:47;;;;;;;4.58;3.50;;;;;;;20.71;73.05;100160.61;1570929;90;21033;-41
2021/06/12 06:43:14;;;;;;;4.10;3.42;;;;;;;20.75;73.27;100161.48;1641261;84;21066;-42
2021/06/12 06:45:41;;;;;;;3.92;3.52;;;;;;;20.81;72.50;100159.98;1700550;81;20970;-41
2021/06/12 06:48:12;;;;;;;4.17;3.58;;;;;;;20.83;72.34;100162.02;1744414;80;20968;-38
2021/06/12 06:50:41;;;;;;;4.92;3.60;;;;;;;20.86;72.12;100162.20;1745171;80;21848;-39
2021/06/12 06:53:09;;;;;;;6.95;4.45;;;;;;;20.90;73.02;100165.78;1703268;82;20952;-42
2021/06/12 06:55:36;;;;;;;4.42;4.03;;;;;;;20.98;73.40;100172.24;1740595;81;20965;-43
2021/06/12 06:58:04;;;;;;;3.80;3.10;;;;;;;21.05;73.94;100176.00;1742850;80;21381;-43
2021/06/12 07:00:30;;;;;;;4.25;3.22;;;;;;;21.12;73.35;100178.39;1740683;81;20943;-43
2021/06/12 07:02:59;;;;;;;3.50;2.55;;;;;;;21.19;73.26;100173.98;1743547;80;20964;-41
2021/06/12 07:05:27;;;;;;;3.55;2.58;;;;;;;21.26;71.75;100170.11;1744795;80;20955;-40
2021/06/12 07:07:55;;;;;;;6.00;3.27;;;;;;;21.31;70.64;100171.30;1742519;80;20959;-40
2021/06/12 07:10:22;;;;;;;4.03;3.08;;;;;;;21.38;70.51;100163.36;1745252;80;21408;-37
2021/06/12 07:12:48;;;;;;;4.05;2.83;;;;;;;21.43;70.28;100164.25;1743338;80;20964;-41
2021/06/12 07:15:16;;;;;;;2.90;2.33;;;;;;;21.48;68.96;100171.38;1744910;80;21019;-42
2021/06/12 07:17:43;;;;;;;4.90;2.60;;;;;;;21.49;66.26;100167.63;1738081;80;20988;-40
2021/06/12 07:20:11;;;;;;;4.87;2.37;;;;;;;21.51;65.41;100167.80;1744426;81;20940;-42
2021/06/12 07:22:38;;;;;;;2.35;2.08;;;;;;;21.52;65.18;100170.88;1743714;80;20972;-43
2021/06/12 07:25:07;;;;;;;2.62;1.87;;;;;;;21.58;63.98;100171.55;1741041;81;20939;-42
2021/06/12 07:27:34;;;;;;;2.37;2.10;;;;;;;21.66;62.24;100163.08;1745279;80;20960;-39
2021/06/12 07:30:02;;;;;;;2.30;1.87;;;;;;;21.70;61.52;100163.93;1740976;81;20949;-40
2021/06/12 07:32:29;;;;;;;3.65;2.50;;;;;;;21.75;61.02;100165.63;1740403;80;20952;-39
2021/06/12 07:34:56;;;;;;;3.35;2.58;;;;;;;21.78;61.16;100165.28;1744365;81;21000;-37
2021/06/12 07:37:23;;;;;;;8.18;2.75;;;;;;;21.79;59.53;100164.25;1745782;80;21459;-38
2021/06/12 07:39:51;;;;;;;5.50;3.85;;;;;;;21.78;59.49;100161.20;1745249;81;20956;-41
2021/06/12 07:42:18;;;;;;;2.85;2.42;;;;;;;21.82;60.51;100161.70;1742400;80;20986;-38
2021/06/12 07:44:45;;;;;;;3.75;2.30;;;;;;;21.87;58.05;100155.77;1741618;81;21503;-39
2021/06/12 07:47:12;;;;;;;2.95;2.00;;;;;;;21.90;58.27;100160.36;1741509;81;20959;-38
2021/06/12 07:49:40;;;;;;;5.85;2.58;;;;;;;21.95;59.47;100157.14;1741102;81;21434;-40
2021/06/12 07:52:06;;;;;;;3.42;2.00;;;;;;;21.99;59.15;100160.67;1744396;80;20987;-41
2021/06/12 07:54:33;;;;;;;2.80;1.98;;;;;;;22.03;59.28;100155.25;1741136;80;20959;-42
2021/06/12 07:57:00;;;;;;;7.83;4.53;;;;;;;22.06;60.53;100154.58;1739834;81;20932;-40
2021/06/12 07:59:27;;;;;;;2.60;2.40;;;;;;;22.13;61.12;100155.59;1742167;80;20961;-40
2021/06/12 08:01:54;;;;;;;2.55;2.35;;;;;;;22.20;60.59;100162.03;1743415;81;20949;-37
2021/06/12 08:04:24;;;;;;;2.95;2.30;;;;;;;22.24;58.68;100156.60;1743491;81;21399;-37
2021/06/12 08:06:51;;;;;;;2.20;2.00;;;;;;;22.24;58.68;100156.09;1744220;80;21326;-37
2021/06/12 08:09:19;;;;;;;2.20;2.00;;;;;;;22.29;59.16;100152.86;1743120;81;20936;-38
2021/06/12 08:11:45;;;;;;;2.95;2.47;;;;;;;22.33;60.22;100148.78;1743238;80;21011;-38
2021/06/12 08:14:12;;;;;;;4.17;3.12;;;;;;;22.38;59.19;100152.34;1741396;81;20979;-38
2021/06/12 08:16:39;;;;;;;4.15;2.70;;;;;;;22.41;59.67;100152.83;1745462;80;21310;-39
2021/06/12 08:19:06;;;;;;;3.00;2.33;;;;;;;22.47;58.54;100158.06;1744832;80;20983;-39
2021/06/12 08:21:35;;;;;;;4.08;2.83;;;;;;;22.48;56.60;100147.55;1740858;81;20972;-39
2021/06/12 08:24:03;;;;;;;4.75;2.70;;;;;;;22.49;57.19;100145.67;1719367;82;20920;-38
2021/06/12 08:26:30;;;;;;;3.98;3.52;;;;;;;22.49;57.24;100149.75;1738380;81;21015;-44
2021/06/12 08:28:57;;;;;;;4.95;3.05;;;;;;;22.53;58.42;100147.88;1741582;80;20944;-39
2021/06/12 08:31:24;;;;;;;3.58;2.92;;;;;;;22.58;57.72;100144.12;1743972;80;21514;-39
2021/06/12 08:33:51;;;;;;;2.85;2.58;;;;;;;22.63;57.02;100149.03;1743400;80;20971;-38
2021/06/12 08:36:20;;;;;;;2.87;2.58;;;;;;;22.64;56.33;100144.77;1747787;81;21047;-40
2021/06/12 08:38:47;;;;;;;3.75;2.50;;;;;;;22.68;55.82;100143.91;1742364;80;20936;-42
2021/06/12 08:41:15;;;;;;;5.72;3.10;;;;;;;22.71;56.24;100142.71;1741351;80;20947;-41
2021/06/12 08:43:43;;;;;;;2.42;1.85;;;;;;;22.80;61.27;100145.19;1743065;81;21016;-43
2021/06/12 08:46:10;;;;;;;2.70;2.33;;;;;;;22.98;61.60;100147.70;1747367;80;20949;-41
2021/06/12 08:48:37;;;;;;;3.00;2.22;;;;;;;23.13;55.09;100142.33;1724816;82;20991;-42
2021/06/12 08:51:04;;;;;;;2.40;1.80;;;;;;;23.25;55.75;100142.77;1743220;82;21423;-41
2021/06/12 08:53:32;;;;;;;3.12;1.45;;;;;;;23.32;51.35;100139.67;1741685;81;20956;-39
2021/06/12 08:56:00;;;;;;;2.37;1.80;;;;;;;23.36;48.78;100145.09;1746983;81;21384;-40
2021/06/12 08:58:27;;;;;;;4.35;1.70;;;;;;;23.39;49.29;100135.72;1741097;80;21011;-43
2021/06/12 09:00:55;;;;;;;2.00;1.65;;;;;;;23.43;50.15;100139.75;1741970;80;21475;-42
2021/06/12 09:03:23;;;;;;;2.75;2.33;;;;;;;23.48;49.84;100137.33;1741032;80;21007;-45
2021/06/12 09:05:56;;;;;;;3.92;2.22;;;;;;;23.53;49.58;100137.11;1709529;82;20984;-44
2021/06/12 09:11:05;;;;;;;3.40;2.02;;;;;;;23.50;48.77;100129.84;1806520;78;22314;-41
2021/06/12 09:13:58;;;;;;;6.20;2.58;;;;;;;23.38;49.29;100133.49;1775223;79;20985;-42
2021/06/12 09:16:33;;;;;;;4.80;2.37;;;;;;;23.35;49.99;100130.30;1778583;79;21531;-42
2021/06/12 09:19:12;;;;;;;3.62;2.33;;;;;;;23.38;50.22;100127.21;1770169;80;21005;-43
2021/06/12 09:21:58;;;;;;;2.85;2.15;;;;;;;23.47;50.71;100128.86;1773280;80;20931;-47
2021/06/12 09:24:32;;;;;;;3.83;1.92;;;;;;;23.61;51.06;100133.52;1773967;79;20904;-44
2021/06/12 09:27:05;;;;;;;5.45;2.50;;;;;;;23.75;51.90;100129.16;1770963;79;21011;-43
2021/06/12 09:29:46;;;;;;;5.10;2.42;;;;;;;23.82;48.04;100131.48;1773651;79;20925;-45
2021/06/12 09:32:22;;;;;;;4.50;2.55;;;;;;;23.82;49.17;100127.39;1773430;80;21000;-44
2021/06/12 09:34:55;;;;;;;2.87;2.05;;;;;;;23.88;48.13;100121.20;1773464;80;20937;-42
2021/06/12 09:37:25;;;;;;;3.50;2.05;;;;;;;23.94;49.42;100116.92;1775490;79;20985;-42
2021/06/12 09:40:14;;;;;;;3.25;2.05;;;;;;;24.01;47.01;100119.72;1782379;79;20940;-41
2021/06/12 09:42:51;;;;;;;2.72;1.90;;;;;;;24.00;46.34;100108.52;1769316;79;21134;-44
2021/06/12 09:45:30;;;;;;;3.00;2.22;;;;;;;23.98;46.72;100114.97;1756265;80;20955;-43
2021/06/12 09:48:17;;;;;;;2.72;2.25;;;;;;;24.00;46.34;100114.80;1753407;80;20947;-45
2021/06/12 09:50:46;;;;;;;4.00;3.05;;;;;;;24.02;46.25;100107.82;1753976;80;20955;-49
2021/06/12 09:53:16;;;;;;;2.50;2.05;;;;;;;24.01;46.92;100110.20;1751087;80;20971;-43
2021/06/12 09:55:44;;;;;;;3.70;2.02;;;;;;;24.04;47.25;100106.60;1751920;81;20969;-41
2021/06/12 09:58:11;;;;;;;3.98;2.40;;;;;;;24.05;47.04;100110.16;1749699;80;20956;-43
2021/06/12 10:00:46;;;;;;;3.62;2.35;;;;;;;24.05;47.52;100108.28;1754388;80;21241;-48
2021/06/12 10:03:22;;;;;;;3.25;2.25;;;;;;;24.10;47.47;100109.92;1747753;80;20991;-42
2021/06/12 10:05:49;;;;;;;2.95;1.87;;;;;;;24.15;48.59;100107.48;1753923;80;20960;-41
2021/06/12 10:08:18;;;;;;;6.42;2.20;;;;;;;24.24;48.04;100107.39;1739192;81;20951;-40
2021/06/12 10:10:50;;;;;;;3.72;1.80;;;;;;;24.29;46.98;100094.05;1746675;80;20936;-42
2021/06/12 10:13:17;;;;;;;1.75;1.65;;;;;;;24.35;47.30;100093.31;1739855;80;21357;-40
2021/06/12 10:15:46;;;;;;;3.77;2.90;;;;;;;24.41;47.25;100087.94;1749372;80;21003;-39
2021/06/12 10:18:14;;;;;;;4.42;2.17;;;;;;;24.49;46.81;100082.94;1740943;81;20998;-39
2021/06/12 10:20:41;;;;;;;3.12;2.33;;;;;;;24.55;47.17;100084.08;1697529;80;21848;-39
2021/06/12 10:23:08;;;;;;;4.08;2.08;;;;;;;24.61;47.59;100078.69;1686416;83;20991;-39
2021/06/12 10:25:35;;;;;;;5.12;2.20;;;;;;;24.69;47.82;100077.73;1748610;80;20968;-44
2021/06/12 10:28:02;;;;;;;2.72;2.35;;;;;;;24.76;46.90;100073.21;1747686;81;20976;-41
2021/06/12 10:30:29;;;;;;;3.77;2.92;;;;;;;24.84;48.73;100070.36;1745832;81;21944;-42
2021/06/12 10:32:56;;;;;;;2.58;2.37;;;;;;;24.90;47.10;100070.14;1747246;80;21450;-44
2021/06/12 10:35:26;;;;;;;2.70;2.45;;;;;;;24.93;46.34;100069.74;1741924;80;20959;-44
2021/06/12 10:38:05;;;;;;;3.12;2.58;;;;;;;24.94;46.94;100074.67;1678943;83;20988;-43
2021/06/12 10:40:46;;;;;;;4.17;2.52;;;;;;;24.92;45.46;100067.20;1746157;80;21522;-43
2021/06/12 10:43:19;;;;;;;3.10;2.52;;;;;;;24.86;45.45;100067.98;1746548;81;21455;-45
2021/06/12 10:45:51;;;;;;;3.27;2.70;;;;;;;24.79;46.00;100065.17;1685900;83;21622;-45
2021/06/12 10:48:59;;;;;;;4.72;2.77;;;;;;;24.72;46.90;100056.94;1723502;81;20991;-45
2021/06/12 10:51:34;;;;;;;3.10;2.67;;;;;;;24.70;46.84;100055.44;1741919;80;21011;-44
2021/06/12 10:54:23;;;;;;;3.33;2.35;;;;;;;24.71;48.04;100048.41;1679902;83;20984;-39
2021/06/12 10:56:55;;;;;;;4.03;2.50;;;;;;;24.78;48.33;100047.14;1707956;82;21774;-38
2021/06/12 10:59:44;;;;;;;3.25;2.77;;;;;;;24.88;49.13;100044.11;1736747;81;21006;-42
2021/06/12 11:02:17;;;;;;;3.30;2.67;;;;;;;24.93;48.68;100041.64;1739181;80;21011;-40
2021/06/12 11:05:01;;;;;;;3.72;3.02;;;;;;;24.98;48.55;100052.28;1737233;81;20979;-41
2021/06/12 11:07:38;;;;;;;2.37;2.17;;;;;;;24.98;47.04;100050.08;1738285;80;21327;-42
2021/06/12 11:10:19;;;;;;;5.30;2.80;;;;;;;24.97;47.20;100051.09;1744486;81;20975;-42
2021/06/12 11:12:51;;;;;;;2.77;2.58;;;;;;;24.99;47.13;100041.69;1751955;80;20991;-42
2021/06/12 11:15:29;;;;;;;4.03;3.30;;;;;;;25.00;47.04;100039.31;1745776;81;20948;-42
2021/06/12 11:18:21;;;;;;;3.42;2.80;;;;;;;25.03;47.45;100045.73;1739298;81;20959;-41
2021/06/12 11:21:06;;;;;;;3.25;2.35;;;;;;;25.07;47.17;100036.63;1679092;83;21038;-41
2021/06/12 11:23:55;;;;;;;3.27;2.50;;;;;;;25.11;47.79;100032.48;1704523;82;21000;-41
2021/06/12 11:26:22;;;;;;;4.05;2.58;;;;;;;25.17;47.25;100025.42;1739190;80;20979;-40
2021/06/12 11:29:09;;;;;;;3.10;2.50;;;;;;;25.21;47.24;100019.39;1676375;83;20991;-43
2021/06/12 11:31:39;;;;;;;3.40;2.42;;;;;;;25.26;44.65;100014.72;1744746;81;20941;-42
2021/06/12 11:34:21;;;;;;;5.80;2.87;;;;;;;25.28;44.89;100011.80;1742068;80;20955;-41
2021/06/12 11:37:10;;;;;;;2.60;2.15;;;;;;;25.33;46.29;100019.71;1682212;83;21479;-40
2021/06/12 11:39:51;;;;;;;3.60;2.92;;;;;;;25.40;44.08;100012.43;1654865;85;20988;-39
2021/06/12 11:42:18;;;;;;;2.98;2.60;;;;;;;25.43;44.04;100010.66;1627808;86;21004;-40